Time;durP1;ratioP1;P1;durP2;ratioP2;P2;SDS_P1;SDS_P2;PMS_P1;PMS_P2;Temp;Humidity;BMP_temperature;BMP_pressure;BME280_temperature;BME280_humidity;BME280_pressure;Samples;Min_cycle;Max_cycle;Signal;HPM_P1;HPM_P2
2022/09/16 00:00:57;;;;;;;28.88;12.35;;;;;;;16.76;77.98;99354.09;5008733;28;20124;-86
2022/09/16 00:03:24;;;;;;;31.08;13.20;;;;;;;16.75;78.08;99355.94;5012281;28;20127;-88
2022/09/16 00:05:52;;;;;;;29.35;14.35;;;;;;;16.76;78.14;99357.59;5012378;28;20092;-87
2022/09/16 00:08:20;;;;;;;27.50;12.68;;;;;;;16.77;78.34;99356.59;4991169;28;20052;-87
2022/09/16 00:10:47;;;;;;;29.65;14.57;;;;;;;16.78;78.43;99357.44;5012579;28;20095;-89
2022/09/16 00:13:14;;;;;;;28.25;13.45;;;;;;;16.78;78.45;99360.94;5010246;28;20124;-88
2022/09/16 00:15:42;;;;;;;27.55;14.02;;;;;;;16.78;78.72;99349.41;5015310;28;20072;-88
2022/09/16 00:18:10;;;;;;;27.50;14.50;;;;;;;16.78;78.74;99352.09;5024712;28;20492;-89
2022/09/16 00:20:45;;;;;;;29.65;13.75;;;;;;;16.67;79.38;99356.06;5010113;28;20065;-88
2022/09/16 00:23:41;;;;;;;32.47;14.88;;;;;;;16.55;80.19;99352.19;4971903;28;20412;-88
2022/09/16 00:26:07;;;;;;;29.17;13.88;;;;;;;16.73;79.18;99338.38;4942866;28;20120;-87
2022/09/16 00:28:34;;;;;;;26.30;13.35;;;;;;;16.69;79.45;99346.81;5034524;28;20132;-88
2022/09/16 00:31:01;;;;;;;36.58;14.38;;;;;;;16.69;79.40;99349.47;5026777;28;20099;-86
2022/09/16 00:33:30;;;;;;;26.90;12.35;;;;;;;16.66;79.56;99352.53;5016457;28;20507;-88
2022/09/16 00:36:08;;;;;;;26.92;13.73;;;;;;;16.58;80.07;99351.78;4990188;28;20105;-88
2022/09/16 00:38:36;;;;;;;33.40;14.52;;;;;;;16.70;79.51;99350.31;4961751;28;20128;-87
2022/09/16 00:41:04;;;;;;;29.00;15.38;;;;;;;16.67;79.65;99354.19;5030229;28;20103;-88
2022/09/16 00:43:57;;;;;;;30.27;16.50;;;;;;;16.46;80.62;99357.63;5034458;28;20451;-89
2022/09/16 00:46:43;;;;;;;35.58;16.58;;;;;;;16.49;80.59;99359.13;4976011;28;20067;-86
2022/09/16 00:49:30;;;;;;;31.13;15.18;;;;;;;16.43;81.32;99362.53;4985594;28;20048;-89
2022/09/16 00:52:04;;;;;;;29.75;15.40;;;;;;;16.51;80.76;99362.41;4987262;28;20132;-87
2022/09/16 00:54:33;;;;;;;35.58;15.23;;;;;;;16.64;80.08;99361.78;5012820;28;20516;-88
2022/09/16 00:57:01;;;;;;;30.58;15.13;;;;;;;16.67;80.16;99367.59;5005461;28;20480;-88
2022/09/16 00:59:33;;;;;;;30.00;14.52;;;;;;;16.66;80.20;99363.28;5039036;28;20048;-88
2022/09/16 01:02:06;;;;;;;30.37;14.30;;;;;;;16.64;80.23;99369.84;5014968;28;20073;-87
2022/09/16 01:04:41;;;;;;;27.88;12.63;;;;;;;16.65;80.34;99361.59;5024511;28;20036;-88
2022/09/16 01:07:08;;;;;;;27.52;13.23;;;;;;;16.68;80.04;99363.88;5024714;28;20095;-88
2022/09/16 01:09:35;;;;;;;21.30;11.82;;;;;;;16.72;79.57;99369.72;5012218;28;20426;-88
2022/09/16 01:12:02;;;;;;;25.30;12.23;;;;;;;16.70;79.61;99359.19;5029300;28;20037;-88
2022/09/16 01:21:00;;;;;;;16.80;8.43;;;;;;;16.64;79.05;99381.38;4966382;28;20703;-87
2022/09/16 01:23:46;;;;;;;17.83;7.55;;;;;;;16.47;78.50;99371.88;5035596;28;20076;-88
2022/09/16 01:26:37;;;;;;;23.55;8.40;;;;;;;16.53;78.48;99364.94;4978364;28;20106;-87
2022/09/16 01:29:23;;;;;;;21.75;7.32;;;;;;;16.40;78.81;99374.44;4988935;28;20136;-87
2022/09/16 01:32:07;;;;;;;11.82;6.75;;;;;;;16.56;78.27;99375.28;4989582;28;20068;-87
2022/09/16 01:34:56;;;;;;;18.98;6.80;;;;;;;16.47;77.77;99371.88;5002584;28;20123;-87
2022/09/16 01:38:11;;;;;;;16.40;8.02;;;;;;;16.41;78.20;99378.81;4993168;28;20049;-88
2022/09/16 01:41:03;;;;;;;17.35;6.97;;;;;;;16.40;78.47;99365.56;4952195;28;20135;-88
2022/09/16 01:43:49;;;;;;;16.67;7.80;;;;;;;16.50;77.51;99376.84;4971087;28;20492;-88
2022/09/16 01:46:43;;;;;;;20.42;8.70;;;;;;;16.41;78.13;99365.41;4985946;28;20068;-87
2022/09/16 01:49:28;;;;;;;14.23;7.32;;;;;;;16.39;77.65;99369.28;4992173;28;20053;-87
2022/09/16 01:52:14;;;;;;;13.63;7.57;;;;;;;16.40;77.21;99362.91;4989987;28;20061;-85
2022/09/16 01:55:09;;;;;;;11.57;7.50;;;;;;;16.34;77.54;99360.97;4991849;28;20697;-88
2022/09/16 01:57:41;;;;;;;17.58;7.20;;;;;;;16.49;77.34;99361.81;4944708;28;20084;-85
2022/09/16 02:00:10;;;;;;;19.10;7.53;;;;;;;16.55;77.45;99358.38;5035398;28;20049;-87
2022/09/16 02:02:45;;;;;;;15.43;6.50;;;;;;;16.45;76.75;99347.09;5010020;28;20048;-87
2022/09/16 02:05:16;;;;;;;17.30;6.88;;;;;;;16.49;76.57;99354.59;5028213;28;20511;-88
2022/09/16 02:07:47;;;;;;;14.52;6.30;;;;;;;16.52;74.11;99363.28;5019032;28;20128;-87
2022/09/16 02:10:47;;;;;;;16.95;6.47;;;;;;;16.45;75.12;99366.69;5006073;28;20485;-87
2022/09/16 02:13:57;;;;;;;16.95;6.03;;;;;;;16.30;75.69;99362.34;4888242;28;20165;-87
2022/09/16 02:16:57;;;;;;;14.88;6.07;;;;;;;16.26;75.64;99369.94;4932832;28;20037;-87
2022/09/16 02:19:30;;;;;;;14.50;5.72;;;;;;;16.40;74.93;99371.75;4951840;28;20097;-88
2022/09/16 02:21:59;;;;;;;12.57;5.88;;;;;;;16.47;74.81;99369.19;4967462;28;20042;-88
2022/09/16 02:24:26;;;;;;;8.38;4.80;;;;;;;16.47;75.13;99369.19;4982722;28;20490;-87
2022/09/16 02:26:59;;;;;;;7.20;4.45;;;;;;;16.50;72.25;99380.34;4979100;28;20086;-88
2022/09/16 02:29:31;;;;;;;15.00;5.35;;;;;;;16.43;74.02;99368.72;4968739;28;20136;-88
2022/09/16 02:32:00;;;;;;;12.13;5.13;;;;;;;16.42;74.56;99371.59;4979637;28;20064;-88
2022/09/16 02:34:30;;;;;;;10.63;4.47;;;;;;;16.46;74.17;99360.31;4970168;28;20564;-88
2022/09/16 02:37:00;;;;;;;15.10;3.80;;;;;;;16.45;73.88;99323.81;4999134;28;20129;-89
2022/09/16 02:39:31;;;;;;;14.55;4.35;;;;;;;16.46;69.90;99279.06;4945823;28;20052;-88
2022/09/16 02:42:02;;;;;;;13.65;4.80;;;;;;;16.45;68.55;99296.19;4980406;28;20355;-89
2022/09/16 02:44:30;;;;;;;15.30;4.40;;;;;;;16.51;71.41;99303.47;4985993;28;20076;-88
2022/09/16 02:47:16;;;;;;;18.40;4.68;;;;;;;16.31;71.94;99321.97;5000912;28;20041;-88
2022/09/16 02:50:00;;;;;;;15.90;5.20;;;;;;;16.28;73.08;99331.22;4946754;28;21056;-86
2022/09/16 02:52:52;;;;;;;16.70;4.35;;;;;;;16.26;73.53;99343.97;4984774;28;20045;-85
2022/09/16 02:55:46;;;;;;;12.00;3.85;;;;;;;16.32;73.25;99330.84;4978885;28;20132;-85
2022/09/16 02:58:13;;;;;;;11.02;4.38;;;;;;;16.44;72.91;99340.91;4992536;28;20149;-86
2022/09/16 03:00:45;;;;;;;17.50;4.28;;;;;;;16.44;71.75;99348.13;5030462;28;20045;-85
2022/09/16 03:03:12;;;;;;;9.50;4.22;;;;;;;16.44;72.08;99342.75;5006623;28;20041;-86
2022/09/16 03:05:58;;;;;;;8.85;3.88;;;;;;;16.37;68.23;99347.19;5009842;28;20041;-86
2022/09/16 03:08:24;;;;;;;6.75;3.63;;;;;;;16.49;70.68;99348.41;4972617;28;20041;-86
2022/09/16 03:10:52;;;;;;;11.88;3.95;;;;;;;16.54;69.23;99358.53;5017878;28;20219;-86
2022/09/16 03:13:34;;;;;;;11.93;3.50;;;;;;;16.39;67.39;99358.56;5030385;28;20048;-86
2022/09/16 03:16:08;;;;;;;10.45;4.20;;;;;;;16.47;66.31;99353.94;4984007;28;20091;-86
2022/09/16 03:18:58;;;;;;;12.20;4.00;;;;;;;16.31;69.13;99356.81;5004631;28;20048;-85
2022/09/16 03:21:30;;;;;;;12.73;3.85;;;;;;;16.43;69.52;99360.66;4971136;28;20133;-85
2022/09/16 03:24:02;;;;;;;10.60;3.75;;;;;;;16.41;70.68;99365.41;4988814;28;20492;-85
2022/09/16 03:26:35;;;;;;;15.80;4.95;;;;;;;16.41;71.29;99360.03;5005826;28;20623;-86
2022/09/16 03:29:17;;;;;;;18.00;4.68;;;;;;;16.45;70.54;99357.81;5026804;28;20120;-85
2022/09/16 03:32:16;;;;;;;9.82;4.00;;;;;;;16.22;71.11;99361.41;4973924;28;20144;-85
2022/09/16 03:34:48;;;;;;;12.75;4.07;;;;;;;16.37;71.17;99357.91;4984567;28;20132;-86
2022/09/16 03:37:17;;;;;;;12.80;4.67;;;;;;;16.37;71.74;99361.41;5031626;28;20168;-86
2022/09/16 03:39:52;;;;;;;11.93;3.78;;;;;;;16.33;71.94;99360.13;4969753;28;20117;-86
2022/09/16 03:42:19;;;;;;;11.38;4.22;;;;;;;16.40;72.66;99352.19;5018537;28;20041;-85
2022/09/16 03:44:45;;;;;;;17.48;4.10;;;;;;;16.40;72.70;99357.53;5017341;28;20404;-86
2022/09/16 03:47:13;;;;;;;21.33;4.63;;;;;;;16.35;72.73;99355.41;4973246;28;20049;-85
2022/09/16 03:49:39;;;;;;;13.65;4.10;;;;;;;16.35;73.16;99355.41;4985566;28;20128;-85
2022/09/16 03:52:07;;;;;;;9.05;4.13;;;;;;;16.36;73.19;99356.22;5032334;28;20060;-85
2022/09/16 03:54:35;;;;;;;10.55;3.60;;;;;;;16.34;73.42;99352.94;5030613;28;20040;-85
2022/09/16 03:57:02;;;;;;;8.75;4.03;;;;;;;16.36;73.16;99353.56;5025354;28;20513;-85
2022/09/16 03:59:28;;;;;;;14.35;4.45;;;;;;;16.32;73.15;99350.41;5032027;28;20052;-86
2022/09/16 04:01:55;;;;;;;15.68;4.45;;;;;;;16.38;72.72;99351.53;5036260;28;20037;-86
2022/09/16 04:04:22;;;;;;;11.85;3.90;;;;;;;16.33;73.30;99345.88;4997729;28;20068;-86
2022/09/16 04:06:49;;;;;;;11.73;4.50;;;;;;;16.35;73.17;99350.03;5031678;28;20041;-85
2022/09/16 04:09:15;;;;;;;7.65;3.90;;;;;;;16.39;72.37;99350.53;5024590;28;20045;-85
2022/09/16 04:11:46;;;;;;;13.85;4.60;;;;;;;16.33;71.20;99344.03;5028667;28;20053;-86
2022/09/16 04:14:13;;;;;;;11.48;4.10;;;;;;;16.34;72.07;99337.69;5009276;28;20063;-86
2022/09/16 04:16:40;;;;;;;13.13;4.30;;;;;;;16.32;72.43;99337.03;5027571;28;20051;-85
2022/09/16 04:19:12;;;;;;;10.45;4.63;;;;;;;16.33;72.54;99341.34;5019452;28;20096;-85
2022/09/16 04:21:39;;;;;;;8.32;3.95;;;;;;;16.34;72.64;99340.34;5018698;28;20068;-86
2022/09/16 04:24:06;;;;;;;8.90;4.22;;;;;;;16.33;72.78;99329.81;5023857;28;20122;-86
2022/09/16 04:26:38;;;;;;;6.45;4.05;;;;;;;16.31;72.92;99338.06;5019980;28;20053;-85
2022/09/16 04:29:05;;;;;;;14.90;4.45;;;;;;;16.30;73.17;99330.19;5001917;28;20053;-83
2022/09/16 04:36:08;;;;;;;7.45;4.15;;;;;;;16.12;72.92;99336.75;5025248;28;20396;-83
2022/09/16 04:43:01;;;;;;;15.35;4.00;;;;;;;16.18;73.54;99337.84;5015420;28;20034;-83
2022/09/16 04:45:28;;;;;;;12.55;4.18;;;;;;;16.19;73.67;99336.84;5022003;28;20135;-82
2022/09/16 04:48:10;;;;;;;;;;;;;;;;;;;;;
2022/09/16 04:51:40;;;;;;;14.82;4.00;;;;;;;16.17;74.33;99342.38;4690501;29;20455;-83
2022/09/16 05:04:07;;;;;;;15.43;4.25;;;;;;;15.92;72.32;99327.56;4775706;29;20126;-83
2022/09/16 05:12:11;;;;;;;15.68;4.45;;;;;;;15.89;72.98;99346.69;4837706;29;20049;-83
2022/09/16 05:18:18;;;;;;;11.43;3.58;;;;;;;16.08;70.88;99346.19;4858256;28;20443;-87
2022/09/16 05:20:45;;;;;;;15.85;4.15;;;;;;;16.06;72.00;99349.03;4954123;28;20125;-87
2022/09/16 05:23:11;;;;;;;10.07;4.38;;;;;;;16.09;72.13;99345.16;4986342;28;20124;-84
2022/09/16 05:25:38;;;;;;;8.98;4.05;;;;;;;16.09;73.28;99334.44;5007386;28;20041;-84
2022/09/16 05:28:05;;;;;;;10.20;4.13;;;;;;;16.09;73.27;99338.97;5003917;28;20049;-84
2022/09/16 05:30:37;;;;;;;9.48;3.30;;;;;;;16.11;67.39;99340.44;4999916;28;20049;-84
2022/09/16 05:33:29;;;;;;;16.92;5.40;;;;;;;15.93;71.77;99338.13;4996644;28;20136;-84
2022/09/16 05:36:03;;;;;;;8.93;4.15;;;;;;;16.02;72.92;99333.50;4986824;28;20081;-84
2022/09/16 05:38:34;;;;;;;13.57;4.30;;;;;;;16.03;72.47;99335.19;4989086;28;20156;-84
2022/09/16 05:41:02;;;;;;;9.65;3.60;;;;;;;16.13;72.32;99337.56;5007688;28;20132;-84
2022/09/16 05:43:29;;;;;;;8.52;3.45;;;;;;;16.12;71.58;99338.59;4988547;28;20050;-84
2022/09/16 05:45:56;;;;;;;13.43;3.70;;;;;;;16.12;71.31;99334.06;5016806;28;20445;-84
2022/09/16 05:48:23;;;;;;;10.15;3.72;;;;;;;16.15;72.76;99335.53;4996781;28;20041;-83
2022/09/16 05:50:52;;;;;;;16.45;4.10;;;;;;;16.10;72.72;99327.22;4983312;28;20177;-83
2022/09/16 05:53:19;;;;;;;11.18;3.63;;;;;;;16.04;73.54;99340.34;5020499;28;20041;-84
2022/09/16 05:55:56;;;;;;;13.38;4.55;;;;;;;15.94;73.15;99342.44;5001319;28;20053;-84
2022/09/16 05:58:24;;;;;;;8.43;4.05;;;;;;;16.02;73.60;99338.84;4965593;28;20148;-84
2022/09/16 06:00:51;;;;;;;13.07;3.65;;;;;;;16.00;73.07;99335.53;5015790;28;20092;-84
2022/09/16 06:03:17;;;;;;;18.35;4.05;;;;;;;16.00;73.24;99346.22;5000636;28;20071;-83
2022/09/16 06:05:44;;;;;;;13.05;3.83;;;;;;;15.97;73.16;99339.41;5012498;28;20045;-82
2022/09/16 06:12:42;;;;;;;12.48;3.58;;;;;;;15.96;73.95;99335.06;4999370;28;20393;-83
2022/09/16 06:15:09;;;;;;;11.10;4.43;;;;;;;16.00;73.76;99344.41;4993477;28;20056;-82
2022/09/16 06:17:37;;;;;;;13.93;3.92;;;;;;;16.00;74.25;99349.78;5001587;28;20049;-83
2022/09/16 06:20:06;;;;;;;11.38;3.75;;;;;;;15.98;74.72;99357.16;5029843;28;20060;-84
2022/09/16 06:22:33;;;;;;;11.02;3.88;;;;;;;15.95;75.14;99353.97;5022329;28;20087;-84
2022/09/16 06:24:59;;;;;;;9.88;4.35;;;;;;;15.96;74.93;99353.00;5031553;28;20052;-83
2022/09/16 06:27:26;;;;;;;11.27;3.80;;;;;;;15.94;74.88;99349.66;5015167;28;20170;-84
2022/09/16 06:29:53;;;;;;;10.00;3.97;;;;;;;15.92;75.13;99343.66;5019183;28;20151;-84
2022/09/16 06:32:20;;;;;;;11.20;4.30;;;;;;;15.92;75.58;99349.00;5028353;28;20076;-84
2022/09/16 06:34:47;;;;;;;16.88;4.85;;;;;;;15.93;75.49;99348.81;5019484;28;20053;-85
2022/09/16 06:37:14;;;;;;;12.40;4.07;;;;;;;15.93;75.76;99348.81;5005829;28;20096;-85
2022/09/16 06:39:41;;;;;;;11.13;4.47;;;;;;;15.96;75.45;99347.63;5036472;28;20120;-85
2022/09/16 06:42:08;;;;;;;8.43;3.65;;;;;;;15.94;75.95;99347.81;5016496;28;20056;-84
2022/09/16 06:44:39;;;;;;;12.90;4.75;;;;;;;16.01;75.73;99345.25;5016170;28;20064;-84
2022/09/16 06:47:06;;;;;;;12.80;5.05;;;;;;;16.04;75.66;99344.88;5034831;28;20041;-84
2022/09/16 06:49:32;;;;;;;12.48;4.68;;;;;;;16.04;75.90;99343.00;5033404;28;20037;-85
2022/09/16 06:51:59;;;;;;;10.40;4.85;;;;;;;16.09;75.58;99341.66;5024163;28;20049;-84
2022/09/16 06:54:26;;;;;;;8.15;3.88;;;;;;;16.06;76.36;99343.66;5020556;28;20045;-84
2022/09/16 06:56:52;;;;;;;12.68;5.10;;;;;;;16.13;76.05;99330.38;5029330;28;20049;-84
2022/09/16 06:59:19;;;;;;;10.95;5.20;;;;;;;16.13;75.71;99337.56;5016082;28;20053;-84
2022/09/16 07:01:46;;;;;;;10.68;4.90;;;;;;;16.14;74.70;99339.25;5032686;28;20068;-84
2022/09/16 07:04:12;;;;;;;13.38;5.32;;;;;;;16.17;74.77;99338.88;5017220;28;20129;-83
2022/09/16 07:06:39;;;;;;;12.07;5.30;;;;;;;16.18;75.03;99341.38;5022744;28;20091;-84
2022/09/16 07:09:26;;;;;;;19.48;6.13;;;;;;;16.21;74.72;99338.31;4997642;28;20052;-84
2022/09/16 07:11:52;;;;;;;16.75;7.00;;;;;;;16.23;74.68;99338.13;5030018;28;20045;-84
2022/09/16 07:14:21;;;;;;;24.52;6.30;;;;;;;16.24;74.68;99345.16;5015318;28;20049;-84
2022/09/16 07:16:48;;;;;;;23.00;7.53;;;;;;;16.29;74.30;99342.75;5001534;28;20052;-84
2022/09/16 07:19:14;;;;;;;17.10;5.97;;;;;;;16.34;74.42;99344.91;5011498;28;20052;-84
2022/09/16 07:21:42;;;;;;;12.32;5.88;;;;;;;16.34;74.40;99342.22;5019898;28;20503;-84
2022/09/16 07:24:11;;;;;;;16.33;5.28;;;;;;;16.35;74.17;99342.00;4990479;28;20080;-84
2022/09/16 07:26:39;;;;;;;17.55;5.28;;;;;;;16.40;73.71;99342.28;5017780;28;20124;-85
2022/09/16 07:29:10;;;;;;;13.23;5.25;;;;;;;16.40;73.75;99338.78;5028155;28;20407;-86
2022/09/16 07:31:37;;;;;;;13.68;6.82;;;;;;;16.44;74.14;99342.75;5014706;28;20049;-87
2022/09/16 07:34:07;;;;;;;18.55;5.40;;;;;;;16.43;72.99;99347.25;5006380;28;20141;-86
2022/09/16 07:36:38;;;;;;;18.45;6.22;;;;;;;16.45;72.82;99345.25;4941534;28;20100;-83
2022/09/16 07:39:05;;;;;;;18.83;6.65;;;;;;;16.51;73.15;99349.03;5018004;28;20049;-84
2022/09/16 07:41:34;;;;;;;17.88;7.45;;;;;;;16.52;72.89;99356.06;5037356;28;20049;-84
2022/09/16 07:44:02;;;;;;;10.93;6.22;;;;;;;16.59;73.12;99353.44;5036563;28;20120;-85
2022/09/16 07:46:31;;;;;;;18.65;7.22;;;;;;;16.57;73.36;99345.63;5007383;28;20041;-85
2022/09/16 07:49:00;;;;;;;25.58;7.85;;;;;;;16.60;72.89;99342.56;5022994;28;20135;-85
2022/09/16 07:51:27;;;;;;;28.77;9.38;;;;;;;16.60;73.03;99344.41;5037832;28;20067;-83
2022/09/16 07:54:01;;;;;;;18.63;8.60;;;;;;;16.59;73.06;99350.78;5020578;28;20461;-85
2022/09/16 07:56:29;;;;;;;15.68;6.72;;;;;;;16.64;72.87;99349.22;4987708;28;20048;-83
2022/09/16 07:58:56;;;;;;;15.93;6.65;;;;;;;16.64;72.84;99362.63;5018442;28;20998;-84
2022/09/16 08:01:23;;;;;;;16.38;6.97;;;;;;;16.62;73.17;99372.69;5037168;28;20049;-84
2022/09/16 08:03:51;;;;;;;23.30;7.70;;;;;;;16.67;72.70;99374.81;5022545;28;20071;-85
2022/09/16 08:06:20;;;;;;;18.52;6.82;;;;;;;16.65;72.78;99366.13;5028302;28;20191;-83
2022/09/16 08:08:47;;;;;;;20.17;6.68;;;;;;;16.65;72.81;99358.91;5009352;28;20150;-85
2022/09/16 08:11:14;;;;;;;16.55;7.47;;;;;;;16.65;72.81;99356.22;5032504;28;20037;-85
2022/09/16 08:13:42;;;;;;;21.17;8.07;;;;;;;16.69;72.52;99356.69;5009394;28;20372;-85
2022/09/16 08:16:12;;;;;;;22.98;7.15;;;;;;;16.65;72.41;99368.81;5023962;28;20057;-84
2022/09/16 08:18:39;;;;;;;15.80;7.40;;;;;;;16.63;72.97;99368.97;5013061;28;20565;-85
2022/09/16 08:21:10;;;;;;;21.25;8.00;;;;;;;16.62;72.79;99369.19;4996171;28;20049;-84
2022/09/16 08:23:39;;;;;;;21.75;7.70;;;;;;;16.63;72.65;99371.66;5014049;28;20140;-86
2022/09/16 08:26:10;;;;;;;19.80;7.85;;;;;;;16.64;72.53;99370.66;5015563;28;20037;-84
2022/09/16 08:28:39;;;;;;;13.20;6.03;;;;;;;16.62;72.20;99366.50;5003910;28;20050;-85
2022/09/16 08:31:23;;;;;;;20.50;6.45;;;;;;;16.60;72.45;99374.72;4941851;28;20065;-84
2022/09/16 08:33:50;;;;;;;18.02;6.80;;;;;;;16.58;72.80;99375.91;5017178;28;20402;-84
2022/09/16 08:36:20;;;;;;;13.70;6.40;;;;;;;16.56;72.59;99370.72;4997265;28;20050;-85
2022/09/16 08:38:49;;;;;;;22.73;7.57;;;;;;;16.53;73.00;99373.78;4995628;28;20121;-84
2022/09/16 08:41:21;;;;;;;18.38;7.82;;;;;;;16.46;74.11;99371.03;4988614;28;20052;-84
2022/09/16 08:44:06;;;;;;;18.67;7.47;;;;;;;16.39;74.40;99375.47;5015919;28;20396;-85
2022/09/16 08:46:35;;;;;;;25.00;7.50;;;;;;;16.46;74.01;99379.09;4995124;28;20057;-83
2022/09/16 08:49:37;;;;;;;16.15;7.05;;;;;;;16.34;74.93;99379.72;5020164;28;20124;-84
2022/09/16 08:52:14;;;;;;;17.00;6.75;;;;;;;16.38;75.17;99386.34;4950048;28;20065;-84
2022/09/16 08:54:50;;;;;;;22.98;7.22;;;;;;;16.33;75.13;99386.91;5001799;28;20061;-85
2022/09/16 08:57:20;;;;;;;21.35;8.35;;;;;;;16.32;75.68;99381.75;4996906;28;20045;-84
2022/09/16 08:59:53;;;;;;;20.58;7.95;;;;;;;16.32;76.36;99381.75;5003534;28;20133;-84
2022/09/16 09:02:50;;;;;;;23.70;8.95;;;;;;;16.16;78.17;99383.59;4989212;28;20041;-84
2022/09/16 09:05:27;;;;;;;19.30;8.60;;;;;;;16.23;78.07;99392.56;4970013;28;20050;-83
2022/09/16 09:08:24;;;;;;;20.67;9.07;;;;;;;16.09;79.18;99384.50;5010892;28;20077;-84
2022/09/16 09:11:01;;;;;;;21.00;9.52;;;;;;;16.15;79.33;99389.13;4962109;28;20128;-85
2022/09/16 09:13:35;;;;;;;20.35;7.78;;;;;;;16.22;78.69;99390.06;5014756;28;20108;-85
2022/09/16 09:16:14;;;;;;;23.05;7.75;;;;;;;16.13;79.63;99389.31;5013026;28;20153;-85
2022/09/16 09:18:53;;;;;;;25.50;7.93;;;;;;;16.15;79.39;99387.25;4993007;28;20379;-85
2022/09/16 09:21:38;;;;;;;23.83;8.68;;;;;;;16.13;79.81;99391.13;5021358;28;20108;-85
2022/09/16 09:24:31;;;;;;;16.58;7.28;;;;;;;16.03;80.49;99383.38;5013552;28;20075;-85
2022/09/16 09:27:06;;;;;;;21.05;8.63;;;;;;;16.15;79.97;99384.59;4971371;28;20047;-85
2022/09/16 09:30:01;;;;;;;20.42;8.95;;;;;;;16.15;80.44;99387.25;4981280;28;20568;-85
2022/09/16 09:33:04;;;;;;;21.05;8.95;;;;;;;16.09;80.58;99382.66;4975449;28;20049;-85
2022/09/16 09:36:12;;;;;;;20.48;7.45;;;;;;;16.12;79.83;99376.91;4938566;28;20045;-84
2022/09/16 09:39:06;;;;;;;15.82;7.60;;;;;;;16.19;79.44;99382.38;5001386;28;20112;-82
2022/09/16 09:41:36;;;;;;;16.48;7.82;;;;;;;16.26;78.81;99378.78;4987747;28;20083;-83
2022/09/16 09:44:18;;;;;;;17.85;7.00;;;;;;;16.21;78.85;99386.53;5007131;28;20480;-83
2022/09/16 09:46:47;;;;;;;16.38;7.72;;;;;;;16.30;78.84;99379.25;4997154;28;20140;-83
2022/09/16 09:49:25;;;;;;;16.88;7.72;;;;;;;16.25;78.55;99385.16;5019159;28;20045;-83
2022/09/16 09:51:59;;;;;;;18.75;7.95;;;;;;;16.31;78.03;99385.44;5017833;28;20118;-83
2022/09/16 09:54:28;;;;;;;21.45;7.45;;;;;;;16.38;77.59;99381.81;4987827;28;20041;-83
2022/09/16 09:57:16;;;;;;;22.77;7.80;;;;;;;16.28;77.75;99382.13;5033081;28;20124;-82
2022/09/16 09:59:48;;;;;;;22.17;8.65;;;;;;;16.43;77.98;99382.09;5019403;28;20122;-82
2022/09/16 10:02:17;;;;;;;19.33;7.75;;;;;;;16.49;77.82;99370.66;5018697;28;20037;-84
2022/09/16 10:04:44;;;;;;;19.98;7.13;;;;;;;16.56;77.30;99377.94;5035032;28;20116;-82
2022/09/16 10:07:13;;;;;;;14.77;6.85;;;;;;;16.59;76.78;99369.53;5021564;28;20488;-84
2022/09/16 10:10:00;;;;;;;17.75;6.55;;;;;;;16.53;76.94;99367.59;4989609;28;20535;-84
2022/09/16 10:12:28;;;;;;;19.08;6.72;;;;;;;16.69;76.72;99368.25;5023723;28;20045;-84
2022/09/16 10:14:56;;;;;;;17.33;6.78;;;;;;;16.74;76.69;99365.00;5036355;28;20048;-83
2022/09/16 10:17:24;;;;;;;18.63;6.95;;;;;;;16.77;76.77;99364.63;5009913;28;20045;-84
2022/09/16 10:19:55;;;;;;;17.00;6.28;;;;;;;16.73;75.44;99357.97;5020723;28;20058;-85
2022/09/16 10:22:25;;;;;;;20.05;6.22;;;;;;;16.75;74.78;99368.53;5001163;28;20434;-85
2022/09/16 10:24:58;;;;;;;13.30;6.07;;;;;;;16.66;74.87;99373.13;5020410;28;20107;-85
2022/09/16 10:27:34;;;;;;;14.75;6.10;;;;;;;16.66;75.06;99363.28;4993486;28;20551;-84
2022/09/16 10:30:12;;;;;;;19.58;6.72;;;;;;;16.64;74.68;99359.13;5016383;28;20049;-84
2022/09/16 10:32:53;;;;;;;19.92;7.05;;;;;;;16.54;74.90;99371.94;4995460;28;20092;-83
2022/09/16 10:35:25;;;;;;;19.08;6.47;;;;;;;16.63;75.15;99360.94;4998977;28;20136;-84
2022/09/16 10:37:54;;;;;;;14.07;7.27;;;;;;;16.64;75.14;99354.56;5025048;28;20041;-84
2022/09/16 10:40:22;;;;;;;22.58;7.20;;;;;;;16.67;75.21;99353.38;5001821;28;20499;-84
2022/09/16 10:42:51;;;;;;;16.05;6.78;;;;;;;16.73;74.76;99357.97;5022975;28;20048;-84
2022/09/16 10:45:27;;;;;;;19.75;6.75;;;;;;;16.70;73.23;99348.44;5019086;28;20045;-84
2022/09/16 10:47:57;;;;;;;18.13;7.10;;;;;;;16.81;73.34;99349.03;5015447;28;20651;-84
2022/09/16 10:50:27;;;;;;;17.73;5.80;;;;;;;16.87;73.14;99348.28;5004372;28;20060;-85
2022/09/16 10:52:54;;;;;;;14.02;5.90;;;;;;;16.95;72.66;99339.28;5027569;28;20128;-85
2022/09/16 10:55:27;;;;;;;15.32;5.45;;;;;;;17.00;72.34;99340.38;4987494;28;20049;-86
2022/09/16 10:58:05;;;;;;;;;;;;;;;16.83;71.04;99344.31;5022034;28;20520;-84
2022/09/16 11:00:39;;;;;;;16.10;4.30;;;;;;;17.01;70.72;99343.91;4996955;28;19933;-85
2022/09/16 11:03:37;;;;;;;12.88;4.60;;;;;;;16.98;69.33;99344.28;5016714;28;20044;-84
2022/09/16 11:06:22;;;;;;;9.95;3.95;;;;;;;17.15;69.88;99343.03;5003635;28;20404;-85
2022/09/16 11:09:27;;;;;;;8.48;3.47;;;;;;;17.19;67.98;99338.09;4976935;28;20076;-84
2022/09/16 11:12:00;;;;;;;16.17;3.55;;;;;;;17.31;68.54;99337.41;5009738;28;20518;-85
2022/09/16 11:14:46;;;;;;;8.00;3.65;;;;;;;17.24;67.60;99343.72;5038001;28;20041;-86
2022/09/16 11:17:38;;;;;;;7.93;2.80;;;;;;;17.33;67.12;99339.91;4999808;28;20399;-83
2022/09/16 11:20:28;;;;;;;8.50;3.40;;;;;;;17.25;65.45;99351.59;5022791;28;20045;-83
2022/09/16 11:23:13;;;;;;;10.48;3.20;;;;;;;17.35;66.20;99346.75;5031424;28;20050;-83
2022/09/16 11:25:49;;;;;;;9.02;3.03;;;;;;;17.37;65.78;99354.59;5011744;28;20044;-84
2022/09/16 11:28:36;;;;;;;14.55;3.97;;;;;;;17.38;64.45;99350.91;5022493;28;20065;-84
2022/09/16 11:31:30;;;;;;;9.45;2.80;;;;;;;17.38;64.08;99353.59;5011592;28;20045;-84
2022/09/16 11:34:03;;;;;;;14.30;3.00;;;;;;;17.42;63.78;99348.66;4975299;28;20124;-83
2022/09/16 11:37:05;;;;;;;7.05;2.78;;;;;;;17.36;62.55;99348.41;5039022;28;20033;-84
2022/09/16 11:39:57;;;;;;;9.57;2.97;;;;;;;17.41;62.10;99350.50;4984600;28;20112;-86
2022/09/16 11:42:41;;;;;;;9.23;2.60;;;;;;;17.44;61.61;99350.13;5022953;28;20030;-85
2022/09/16 11:45:25;;;;;;;8.52;2.17;;;;;;;17.42;61.37;99349.47;4995750;28;20465;-83
2022/09/16 11:48:04;;;;;;;5.55;2.40;;;;;;;17.48;61.65;99343.34;5016692;28;20132;-85
2022/09/16 11:50:39;;;;;;;6.82;2.58;;;;;;;17.49;60.19;99346.88;4985515;28;20501;-85
2022/09/16 11:53:25;;;;;;;4.80;2.38;;;;;;;17.46;59.84;99342.72;5019771;28;20077;-85
2022/09/16 11:56:24;;;;;;;11.80;2.60;;;;;;;17.39;58.71;99336.44;4975426;28;20115;-85
2022/09/16 11:59:09;;;;;;;10.95;3.00;;;;;;;17.39;58.67;99338.31;4940735;28;20072;-84
2022/09/16 12:01:50;;;;;;;10.63;2.58;;;;;;;17.40;59.42;99330.03;5013715;28;20045;-85
2022/09/16 12:04:20;;;;;;;8.35;2.60;;;;;;;17.52;59.90;99325.00;4986650;28;20080;-86
2022/09/16 12:07:11;;;;;;;12.32;2.38;;;;;;;17.46;58.79;99325.78;5002378;28;20124;-85
2022/09/16 12:09:49;;;;;;;9.10;2.25;;;;;;;17.52;57.54;99316.94;4975495;28;20045;-84
2022/09/16 12:12:19;;;;;;;5.32;2.15;;;;;;;17.64;59.02;99328.81;5017927;28;20555;-85
2022/09/16 12:14:52;;;;;;;6.55;1.92;;;;;;;17.60;54.30;99318.66;4998341;28;20041;-85
2022/09/16 12:17:19;;;;;;;;;;;;;;;17.45;54.23;99308.00;5027325;28;20069;-86
2022/09/16 12:19:56;;;;;;;4.22;1.92;;;;;;;17.65;56.30;99309.00;5039363;28;20359;-85
2022/09/16 12:22:53;;;;;;;8.90;2.80;;;;;;;17.65;55.82;99324.28;5022461;28;20386;-86
2022/09/16 12:25:26;;;;;;;6.15;1.95;;;;;;;17.73;54.15;99310.69;4964427;28;20465;-86
2022/09/16 12:28:01;;;;;;;5.72;1.77;;;;;;;17.74;53.86;99302.47;5005816;28;20065;-84
2022/09/16 12:30:37;;;;;;;6.30;2.00;;;;;;;17.81;54.28;99305.25;5020983;28;20048;-83
2022/09/16 12:33:27;;;;;;;7.00;1.88;;;;;;;17.76;52.62;99304.97;5006080;28;20568;-85
2022/09/16 12:36:04;;;;;;;3.13;1.70;;;;;;;17.85;54.55;99303.81;5002857;28;20060;-84
2022/09/16 12:38:30;;;;;;;6.15;1.75;;;;;;;17.95;55.93;99304.28;5014058;28;22010;-84
2022/09/16 12:41:23;;;;;;;6.05;2.25;;;;;;;17.88;52.63;99294.53;5016457;28;20048;-85